Time;durP1;ratioP1;P1;durP2;ratioP2;P2;SDS_P1;SDS_P2;PMS_P1;PMS_P2;Temp;Humidity;BMP_temperature;BMP_pressure;BME280_temperature;BME280_humidity;BME280_pressure;Samples;Min_cycle;Max_cycle;Signal;HPM_P1;HPM_P2
2022/07/01 00:01:22;;;;;;;1.35;0.35;;;;;;;26.12;34.01;101601.97;6219778;23;20450;-42
2022/07/01 00:03:49;;;;;;;0.45;0.20;;;;;;;26.09;34.04;101597.47;6246493;23;20386;-42
2022/07/01 00:06:18;;;;;;;0.57;0.22;;;;;;;26.00;34.03;101584.22;6246171;23;20427;-43
2022/07/01 00:08:47;;;;;;;0.47;0.20;;;;;;;26.12;33.71;101594.06;6244934;23;20010;-43
2022/07/01 00:11:16;;;;;;;4.72;0.45;;;;;;;26.08;33.71;101597.47;6245699;23;20004;-43
2022/07/01 00:13:44;;;;;;;1.58;0.40;;;;;;;26.08;34.14;101598.34;6219730;23;20008;-43
2022/07/01 00:16:13;;;;;;;1.02;0.40;;;;;;;26.08;33.95;101600.97;6246545;23;20012;-42
2022/07/01 00:18:41;;;;;;;0.82;0.30;;;;;;;26.05;34.16;101597.44;6246517;23;20027;-42
2022/07/01 00:21:10;;;;;;;2.58;0.57;;;;;;;25.91;33.80;101579.72;6246179;23;20004;-42
2022/07/01 00:23:38;;;;;;;0.45;0.20;;;;;;;26.05;33.76;101602.69;6195094;23;20385;-46
2022/07/01 00:26:07;;;;;;;1.10;0.45;;;;;;;25.95;33.87;101591.16;6245601;23;20010;-43
2022/07/01 00:28:36;;;;;;;0.88;0.30;;;;;;;25.97;34.03;101594.69;6244419;23;20083;-42
2022/07/01 00:31:04;;;;;;;1.23;0.50;;;;;;;25.91;33.79;101586.69;6219407;23;20008;-49
2022/07/01 00:33:31;;;;;;;0.93;0.32;;;;;;;25.90;33.98;101579.66;6246633;23;20000;-48
2022/07/01 00:36:00;;;;;;;1.23;0.20;;;;;;;25.92;33.62;101592.00;6246043;23;19996;-43
2022/07/01 00:38:29;;;;;;;0.95;0.40;;;;;;;25.75;33.66;101572.47;6219984;23;20023;-42
2022/07/01 00:40:58;;;;;;;1.00;0.35;;;;;;;25.83;33.95;101597.09;6244479;23;20004;-50
2022/07/01 00:43:26;;;;;;;1.13;0.40;;;;;;;25.83;34.08;101590.97;6246132;23;20323;-43
2022/07/01 00:45:54;;;;;;;0.90;0.20;;;;;;;25.86;33.81;101593.66;6245737;23;20411;-42
2022/07/01 00:48:23;;;;;;;1.33;0.30;;;;;;;25.88;33.75;101595.44;6244477;23;20443;-42
2022/07/01 00:50:51;;;;;;;0.95;0.20;;;;;;;25.84;33.75;101595.38;6245242;23;20004;-42
2022/07/01 00:53:20;;;;;;;3.88;0.43;;;;;;;25.87;33.76;101598.91;6219520;23;20004;-44
2022/07/01 00:55:49;;;;;;;0.82;0.30;;;;;;;25.85;33.59;101595.38;6244274;23;20070;-43
2022/07/01 00:58:18;;;;;;;1.48;0.50;;;;;;;25.85;33.68;101600.63;6244007;23;20016;-44
2022/07/01 01:00:45;;;;;;;0.82;0.30;;;;;;;25.83;34.17;101599.72;6245985;23;20004;-49
2022/07/01 01:03:14;;;;;;;3.05;0.68;;;;;;;25.75;33.72;101588.22;6244680;23;20004;-46
2022/07/01 01:05:43;;;;;;;2.38;0.28;;;;;;;25.73;33.72;101590.81;6245429;23;20126;-43
2022/07/01 01:08:11;;;;;;;1.48;0.40;;;;;;;25.72;33.75;101593.44;6245261;23;20000;-45
2022/07/01 01:10:40;;;;;;;3.33;0.50;;;;;;;25.76;33.69;101592.63;6244514;23;20071;-42
2022/07/01 01:13:09;;;;;;;1.08;0.25;;;;;;;25.70;33.91;101600.41;6218903;23;20083;-44
2022/07/01 01:15:38;;;;;;;0.82;0.28;;;;;;;25.69;33.53;101596.00;6219347;23;20055;-43
2022/07/01 01:18:06;;;;;;;1.15;0.10;;;;;;;25.67;33.58;101596.00;6245347;23;20340;-48
2022/07/01 01:20:37;;;;;;;0.63;0.38;;;;;;;25.57;33.89;101579.19;6245665;23;20070;-42
2022/07/01 01:23:05;;;;;;;1.92;0.57;;;;;;;25.59;33.71;101585.38;6219082;23;20446;-42
2022/07/01 01:25:34;;;;;;;1.33;0.50;;;;;;;25.65;33.56;101592.47;6218682;23;20070;-42
2022/07/01 01:28:03;;;;;;;3.50;0.30;;;;;;;25.60;33.97;101596.75;6245838;23;20011;-43
2022/07/01 01:30:32;;;;;;;1.35;0.28;;;;;;;25.55;33.81;101596.69;6246064;23;20024;-43
2022/07/01 01:33:00;;;;;;;0.70;0.43;;;;;;;25.54;33.73;101609.81;6194002;23;20008;-44
2022/07/01 01:35:29;;;;;;;0.75;0.20;;;;;;;25.53;33.59;101603.66;6219416;23;20008;-43
2022/07/01 01:37:58;;;;;;;1.00;0.30;;;;;;;25.47;33.71;101593.06;6194622;23;20008;-46
2022/07/01 01:40:26;;;;;;;2.45;0.40;;;;;;;25.54;33.60;101600.16;6245269;23;20004;-45
2022/07/01 01:42:55;;;;;;;1.70;0.60;;;;;;;25.50;33.66;101598.34;6245105;23;20436;-43
2022/07/01 01:45:23;;;;;;;1.92;0.47;;;;;;;25.50;33.61;101593.09;6244601;23;20061;-43
2022/07/01 01:47:52;;;;;;;1.42;0.20;;;;;;;25.53;33.57;101601.03;6245196;23;20353;-42
2022/07/01 01:50:20;;;;;;;0.82;0.30;;;;;;;25.52;33.70;101601.00;6245298;23;20015;-44
2022/07/01 01:52:49;;;;;;;0.50;0.20;;;;;;;25.48;33.56;101600.94;6220189;23;20000;-49
2022/07/01 01:55:18;;;;;;;0.60;0.30;;;;;;;25.52;33.54;101599.25;6220368;23;20331;-47
2022/07/01 01:57:46;;;;;;;2.05;0.40;;;;;;;25.45;33.46;101594.78;6246828;23;20099;-43
2022/07/01 02:00:15;;;;;;;0.85;0.40;;;;;;;25.45;33.74;101602.66;6220605;23;20012;-43
2022/07/01 02:02:43;;;;;;;0.68;0.25;;;;;;;25.45;33.65;101598.25;6246950;23;20031;-42
2022/07/01 02:05:13;;;;;;;2.05;0.47;;;;;;;25.42;33.64;101597.34;6246733;23;20506;-43
2022/07/01 02:07:42;;;;;;;1.20;0.25;;;;;;;25.42;33.79;101607.84;6247520;23;20000;-45
2022/07/01 02:10:11;;;;;;;1.13;0.25;;;;;;;25.41;33.64;101604.28;6246001;23;20008;-45
2022/07/01 02:12:39;;;;;;;0.43;0.20;;;;;;;25.41;33.38;101608.66;6246770;23;20011;-48
2022/07/01 02:15:08;;;;;;;2.70;0.20;;;;;;;25.41;33.66;101609.53;6246855;23;20051;-53
2022/07/01 02:17:36;;;;;;;1.92;0.32;;;;;;;25.43;33.38;101614.88;6220214;23;20049;-43
2022/07/01 02:20:05;;;;;;;2.30;0.30;;;;;;;25.41;33.54;101617.41;6246785;23;20004;-50
2022/07/01 02:22:34;;;;;;;1.05;0.38;;;;;;;25.36;33.61;101610.31;6246611;23;20018;-43
2022/07/01 02:25:02;;;;;;;0.93;0.40;;;;;;;25.36;33.51;101615.56;6246627;23;20008;-43
2022/07/01 02:27:32;;;;;;;1.20;0.38;;;;;;;25.30;33.58;101608.47;6246952;23;20004;-48
2022/07/01 02:29:59;;;;;;;1.13;0.25;;;;;;;25.32;33.82;101610.25;6246563;23;20000;-51
2022/07/01 02:32:27;;;;;;;0.60;0.30;;;;;;;25.29;33.67;101607.59;6247042;23;20004;-46
2022/07/01 02:34:56;;;;;;;1.08;0.20;;;;;;;25.29;33.54;101615.47;6246588;23;20000;-47
2022/07/01 02:37:24;;;;;;;2.92;0.32;;;;;;;25.31;33.57;101624.28;6246650;23;20011;-45
2022/07/01 02:39:53;;;;;;;0.35;0.10;;;;;;;25.30;33.62;101618.97;6247242;23;20004;-43
2022/07/01 02:42:34;;;;;;;0.90;0.40;;;;;;;25.32;33.47;101625.16;6246518;23;20004;-50
2022/07/01 02:45:05;;;;;;;0.75;0.20;;;;;;;25.27;33.77;101629.44;6246677;23;20031;-46
2022/07/01 02:47:35;;;;;;;1.83;0.22;;;;;;;25.26;33.31;101625.03;6246514;23;20404;-52
2022/07/01 02:50:06;;;;;;;0.50;0.22;;;;;;;25.26;33.37;101625.94;6246680;23;20062;-45
2022/07/01 02:52:35;;;;;;;0.57;0.40;;;;;;;25.25;33.59;101621.53;6246717;23;20404;-49
2022/07/01 02:55:08;;;;;;;0.38;0.20;;;;;;;25.28;33.53;101623.31;6246748;23;20043;-46
2022/07/01 02:57:37;;;;;;;2.17;0.38;;;;;;;25.24;33.28;101619.75;6220984;23;20042;-44
2022/07/01 03:00:06;;;;;;;1.55;0.20;;;;;;;25.27;33.21;101617.19;6246349;23;20008;-47
2022/07/01 03:02:35;;;;;;;1.05;0.43;;;;;;;25.21;33.75;101622.31;6219484;23;20340;-45
2022/07/01 03:05:04;;;;;;;1.35;0.20;;;;;;;25.18;33.55;101615.28;6245738;23;20015;-51
2022/07/01 03:07:32;;;;;;;1.58;0.28;;;;;;;25.17;33.48;101620.50;6246308;23;20028;-44
2022/07/01 03:10:01;;;;;;;0.65;0.32;;;;;;;25.11;33.48;101613.38;6246500;23;20328;-43
2022/07/01 03:12:29;;;;;;;0.93;0.13;;;;;;;25.10;33.51;101626.50;6220457;23;20010;-43
2022/07/01 03:14:59;;;;;;;0.85;0.40;;;;;;;25.12;33.69;101627.41;6246110;23;20078;-46
2022/07/01 03:17:29;;;;;;;3.42;0.30;;;;;;;25.13;33.67;101624.81;6246622;23;20027;-45
2022/07/01 03:19:57;;;;;;;0.25;0.20;;;;;;;25.13;33.63;101626.56;6246299;23;20008;-45
2022/07/01 03:22:27;;;;;;;1.38;0.20;;;;;;;25.11;33.67;101625.66;6246273;23;20007;-50
2022/07/01 03:24:55;;;;;;;0.75;0.32;;;;;;;25.07;33.35;101629.94;6194875;23;20062;-46
2022/07/01 03:27:23;;;;;;;0.55;0.22;;;;;;;25.09;33.41;101632.59;6244666;23;20073;-47
2022/07/01 03:29:51;;;;;;;1.15;0.30;;;;;;;25.06;33.47;101629.91;6220086;23;20034;-49
2022/07/01 03:32:20;;;;;;;0.77;0.32;;;;;;;25.08;33.49;101636.09;6246536;23;20004;-45
2022/07/01 03:34:51;;;;;;;0.43;0.10;;;;;;;25.10;33.71;101634.38;6246080;23;20010;-48
2022/07/01 03:37:20;;;;;;;1.10;0.40;;;;;;;25.08;33.53;101629.09;6245904;23;20391;-47
2022/07/01 03:39:49;;;;;;;0.20;0.10;;;;;;;25.02;33.69;101632.47;6246311;23;20004;-51
2022/07/01 03:42:18;;;;;;;1.65;0.20;;;;;;;25.05;33.43;101633.41;6246147;23;20023;-44
2022/07/01 03:44:46;;;;;;;1.27;0.40;;;;;;;25.00;33.67;101630.69;6245979;23;20011;-45
2022/07/01 03:47:14;;;;;;;0.20;0.10;;;;;;;24.98;33.54;101633.31;6245240;23;20394;-43
2022/07/01 03:49:43;;;;;;;1.02;0.30;;;;;;;24.98;33.47;101625.44;6246179;23;20004;-44
2022/07/01 03:52:11;;;;;;;0.30;0.10;;;;;;;24.95;33.34;101625.38;6246383;23;20118;-42
2022/07/01 03:54:40;;;;;;;3.13;0.70;;;;;;;24.93;33.36;101624.44;6246034;23;20010;-42
2022/07/01 03:57:10;;;;;;;1.95;0.47;;;;;;;24.96;33.41;101631.47;6246146;23;20028;-44
2022/07/01 03:59:40;;;;;;;1.55;0.60;;;;;;;24.93;33.47;101624.44;6244755;23;20024;-43
2022/07/01 04:02:09;;;;;;;1.85;0.30;;;;;;;24.93;33.25;101627.06;6245891;23;20078;-44
2022/07/01 04:04:38;;;;;;;0.43;0.20;;;;;;;24.92;33.73;101633.16;6246037;23;20000;-43
2022/07/01 04:07:09;;;;;;;0.40;0.10;;;;;;;24.91;33.43;101627.88;6245468;23;20043;-42
2022/07/01 04:09:37;;;;;;;3.47;0.30;;;;;;;24.92;33.35;101635.78;6194695;23;20011;-43
2022/07/01 04:12:08;;;;;;;1.08;0.20;;;;;;;24.93;33.42;101648.06;6245749;23;20028;-43
2022/07/01 04:14:36;;;;;;;1.40;0.20;;;;;;;24.93;33.58;101641.91;6245459;23;20335;-44
2022/07/01 04:17:05;;;;;;;0.65;0.20;;;;;;;24.86;33.44;101635.66;6244571;23;20012;-43
2022/07/01 04:19:34;;;;;;;0.57;0.22;;;;;;;24.94;33.58;101641.06;6246045;23;20336;-47
2022/07/01 04:22:49;;;;;;;1.55;0.25;;;;;;;24.88;33.44;101642.72;6245831;23;20000;-47
2022/07/01 04:24:53;;;;;;;0.63;0.30;;;;;;;24.86;33.44;101641.81;6235046;23;20032;-42
2022/07/01 04:27:21;;;;;;;0.32;0.20;;;;;;;24.87;33.28;101646.22;6245035;23;20007;-48
2022/07/01 04:29:50;;;;;;;1.02;0.28;;;;;;;24.86;33.25;101651.41;6245458;23;20336;-43
2022/07/01 04:32:18;;;;;;;0.82;0.25;;;;;;;24.86;33.38;101652.31;6245970;23;20000;-46
2022/07/01 04:34:47;;;;;;;1.10;0.40;;;;;;;24.82;33.49;101652.22;6245028;23;20439;-44
2022/07/01 04:37:15;;;;;;;0.75;0.35;;;;;;;24.83;33.41;101648.72;6245279;23;20012;-48
2022/07/01 04:39:44;;;;;;;2.33;0.20;;;;;;;24.82;33.52;101655.72;6245733;23;20000;-44
2022/07/01 04:42:14;;;;;;;1.70;0.38;;;;;;;24.79;33.60;101660.91;6219207;23;20001;-46
2022/07/01 04:44:43;;;;;;;0.65;0.10;;;;;;;24.77;33.40;101656.47;6219784;23;20494;-44
2022/07/01 04:47:10;;;;;;;0.43;0.30;;;;;;;24.72;33.32;101648.53;6245528;23;20019;-45
2022/07/01 04:49:39;;;;;;;1.00;0.22;;;;;;;24.79;33.58;101653.03;6245587;23;20004;-50
2022/07/01 04:52:08;;;;;;;3.58;0.35;;;;;;;24.79;33.60;101653.03;6245047;23;20004;-43
2022/07/01 04:54:36;;;;;;;0.57;0.20;;;;;;;24.80;33.23;101665.28;6245699;23;20031;-45
2022/07/01 04:57:05;;;;;;;3.38;0.38;;;;;;;24.82;33.25;101668.84;6218305;23;20028;-44
2022/07/01 04:59:32;;;;;;;1.10;0.35;;;;;;;24.81;33.76;101663.56;6245987;23;20024;-43
2022/07/01 05:02:01;;;;;;;0.80;0.30;;;;;;;24.83;33.41;101667.09;6245853;23;20428;-42
2022/07/01 05:04:29;;;;;;;0.93;0.30;;;;;;;24.84;33.34;101669.75;6245468;23;20007;-43
2022/07/01 05:06:58;;;;;;;0.75;0.38;;;;;;;24.84;33.51;101679.34;6245702;23;20008;-42
2022/07/01 05:09:26;;;;;;;0.75;0.30;;;;;;;24.85;33.12;101673.25;6245926;23;20000;-52
2022/07/01 05:11:54;;;;;;;1.58;0.20;;;;;;;24.85;33.27;101670.63;6245291;23;19996;-42
2022/07/01 05:14:21;;;;;;;1.10;0.35;;;;;;;24.87;33.28;101666.31;6245801;23;20000;-50
2022/07/01 05:16:50;;;;;;;0.57;0.28;;;;;;;24.88;33.19;101675.94;6218809;23;20335;-48
2022/07/01 05:22:06;;;;;;;2.67;0.50;;;;;;;24.98;33.07;101683.16;6235263;23;20056;-50
2022/07/01 05:24:34;;;;;;;0.85;0.10;;;;;;;24.97;33.20;101678.78;6245511;23;20454;-44
2022/07/01 05:27:03;;;;;;;0.43;0.25;;;;;;;24.96;32.99;101674.38;6246936;23;20080;-45
2022/07/01 05:29:32;;;;;;;1.02;0.35;;;;;;;24.88;33.26;101670.69;6220510;23;20035;-50
2022/07/01 05:32:00;;;;;;;3.00;0.40;;;;;;;24.88;33.43;101666.34;6247085;23;20004;-44
2022/07/01 05:34:29;;;;;;;1.33;0.30;;;;;;;24.87;33.31;101669.81;6247274;23;20000;-51
2022/07/01 05:36:57;;;;;;;2.17;0.38;;;;;;;24.90;33.16;101679.50;6245759;23;20087;-43
2022/07/01 05:39:26;;;;;;;0.95;0.38;;;;;;;24.90;33.74;101684.75;6247788;23;20007;-44
2022/07/01 05:41:54;;;;;;;4.30;0.32;;;;;;;24.85;33.54;101676.78;6247657;23;20370;-53
2022/07/01 05:44:23;;;;;;;3.03;0.65;;;;;;;25.03;33.35;101688.50;6247432;23;20004;-42
2022/07/01 05:46:52;;;;;;;2.88;0.55;;;;;;;25.01;33.53;101680.59;6246870;23;20007;-47
2022/07/01 05:49:20;;;;;;;1.02;0.35;;;;;;;25.06;33.36;101690.28;6247350;23;20004;-49
2022/07/01 05:51:49;;;;;;;3.72;0.50;;;;;;;25.05;33.38;101680.66;6246937;23;20023;-44
2022/07/01 05:54:17;;;;;;;0.65;0.30;;;;;;;25.06;33.67;101688.56;6247218;23;20004;-45
2022/07/01 05:56:45;;;;;;;2.15;0.50;;;;;;;24.98;33.43;101693.66;6246859;23;20027;-45
2022/07/01 05:59:14;;;;;;;0.65;0.30;;;;;;;25.07;33.49;101703.44;6245887;23;20437;-51
2022/07/01 06:01:42;;;;;;;3.65;0.60;;;;;;;24.94;33.83;101704.97;6220318;23;20328;-44
2022/07/01 06:04:11;;;;;;;1.85;0.43;;;;;;;24.87;33.65;101690.81;6247421;23;20014;-47
2022/07/01 06:06:39;;;;;;;1.73;0.40;;;;;;;24.92;33.73;101693.53;6246990;23;20036;-44
2022/07/01 06:09:08;;;;;;;3.50;0.70;;;;;;;24.88;34.00;101692.59;6246198;23;20000;-46
2022/07/01 06:11:36;;;;;;;1.83;0.55;;;;;;;24.92;33.95;101696.16;6246812;23;20324;-49
2022/07/01 06:14:05;;;;;;;2.05;0.50;;;;;;;24.99;33.81;101690.16;6246791;23;20427;-42
2022/07/01 06:16:33;;;;;;;0.75;0.40;;;;;;;24.92;34.04;101698.78;6246410;23;20416;-44
2022/07/01 06:19:01;;;;;;;0.90;0.28;;;;;;;25.07;34.07;101702.56;6246790;23;20031;-51
2022/07/01 06:21:30;;;;;;;4.75;0.50;;;;;;;25.00;34.11;101701.56;6247110;23;20421;-43
2022/07/01 06:23:58;;;;;;;4.13;0.60;;;;;;;24.89;34.00;101677.72;6246832;23;20516;-45
2022/07/01 06:26:27;;;;;;;4.13;0.70;;;;;;;24.98;34.17;101693.66;6247064;23;20063;-43
2022/07/01 06:28:55;;;;;;;2.50;0.40;;;;;;;24.93;34.45;101705.81;6246761;23;20004;-47
2022/07/01 06:31:23;;;;;;;2.20;0.52;;;;;;;24.90;34.62;101692.63;6246695;23;20000;-49
2022/07/01 06:33:50;;;;;;;2.58;0.65;;;;;;;25.11;34.37;101704.41;6247092;23;20412;-48
2022/07/01 06:36:19;;;;;;;3.47;0.70;;;;;;;25.14;34.40;101701.84;6219691;23;20367;-43
2022/07/01 06:38:47;;;;;;;2.17;0.68;;;;;;;25.00;34.39;101691.06;6246007;23;20004;-49
2022/07/01 06:41:35;;;;;;;1.48;0.38;;;;;;;25.00;34.46;101698.94;6246699;23;20062;-45
2022/07/01 06:44:04;;;;;;;4.47;0.43;;;;;;;25.13;34.49;101715.84;6245913;23;20002;-44
2022/07/01 06:46:33;;;;;;;3.00;0.50;;;;;;;25.00;34.72;101715.56;6246483;23;20493;-46
2022/07/01 06:49:00;;;;;;;5.22;0.65;;;;;;;25.03;34.79;101715.63;6246384;23;20007;-45
2022/07/01 06:51:29;;;;;;;4.47;0.88;;;;;;;24.98;34.91;101709.41;6246833;23;20004;-46
2022/07/01 06:53:57;;;;;;;5.00;0.73;;;;;;;25.00;34.50;101710.31;6246438;23;20497;-44
2022/07/01 06:56:26;;;;;;;3.45;0.45;;;;;;;24.94;34.79;101704.06;6245850;23;20008;-44
2022/07/01 06:58:54;;;;;;;4.22;0.82;;;;;;;24.99;34.82;101716.41;6246236;23;20451;-45
2022/07/01 07:01:23;;;;;;;1.67;0.55;;;;;;;25.07;35.16;101719.19;6219864;23;20062;-42
2022/07/01 07:03:51;;;;;;;1.45;0.30;;;;;;;25.09;35.00;101716.63;6246293;23;20038;-44
2022/07/01 07:06:20;;;;;;;1.70;0.65;;;;;;;25.08;35.26;101720.09;6246415;23;20458;-50
2022/07/01 07:08:48;;;;;;;3.30;0.65;;;;;;;25.15;35.01;101722.88;6246038;23;20008;-43
2022/07/01 07:11:19;;;;;;;4.03;0.55;;;;;;;25.04;35.42;101698.16;6219825;23;20009;-44
2022/07/01 07:13:47;;;;;;;2.65;0.55;;;;;;;25.18;35.12;101728.19;6245004;23;20008;-44
2022/07/01 07:16:20;;;;;;;1.27;0.50;;;;;;;25.22;35.34;101726.50;6246398;23;20451;-43
2022/07/01 07:18:50;;;;;;;2.70;0.50;;;;;;;25.29;35.12;101731.03;6245853;23;20066;-42
2022/07/01 07:21:18;;;;;;;2.03;0.40;;;;;;;25.29;35.24;101733.66;6219889;23;20027;-42
2022/07/01 07:23:46;;;;;;;2.25;0.70;;;;;;;25.23;35.26;101733.53;6246628;23;20057;-49
2022/07/01 07:26:15;;;;;;;3.47;0.40;;;;;;;25.26;35.17;101730.97;6219973;23;20011;-45
2022/07/01 07:28:43;;;;;;;2.17;0.75;;;;;;;25.33;35.32;101732.84;6246104;23;20035;-47
2022/07/01 07:31:12;;;;;;;2.15;0.50;;;;;;;25.35;35.05;101732.88;6245992;23;20008;-45
2022/07/01 07:33:41;;;;;;;1.30;0.32;;;;;;;25.36;35.17;101728.50;6246043;23;20079;-45
2022/07/01 07:36:08;;;;;;;2.95;0.63;;;;;;;25.41;35.17;101734.75;6246093;23;20070;-47
2022/07/01 07:38:39;;;;;;;1.60;0.40;;;;;;;25.37;34.98;101732.91;6246482;23;20004;-43
2022/07/01 07:41:07;;;;;;;2.97;0.60;;;;;;;25.39;35.35;101732.09;6246169;23;20331;-46
2022/07/01 07:43:34;;;;;;;2.75;0.60;;;;;;;25.33;35.47;101724.09;6245582;23;20014;-47
2022/07/01 07:46:05;;;;;;;3.53;0.60;;;;;;;25.42;35.13;101726.03;6245899;23;20000;-46
2022/07/01 07:48:33;;;;;;;0.98;0.60;;;;;;;25.47;35.49;101737.53;6244269;23;20066;-49
2022/07/01 07:51:01;;;;;;;1.67;0.40;;;;;;;25.39;35.17;101737.34;6245973;23;20428;-44
2022/07/01 07:53:30;;;;;;;4.50;0.70;;;;;;;25.37;35.61;101741.69;6219615;23;20518;-43
2022/07/01 07:55:58;;;;;;;4.43;0.52;;;;;;;25.36;35.22;101747.78;6218813;23;20043;-46
2022/07/01 07:58:27;;;;;;;2.05;0.52;;;;;;;25.27;35.71;101740.63;6245282;23;20019;-47
2022/07/01 08:00:55;;;;;;;5.35;0.52;;;;;;;25.32;35.74;101748.59;6245926;23;20386;-45
2022/07/01 08:03:24;;;;;;;2.22;0.60;;;;;;;25.33;35.47;101748.59;6245913;23;20031;-45
2022/07/01 08:05:52;;;;;;;4.25;0.70;;;;;;;25.35;35.77;101740.78;6245675;23;20332;-46
2022/07/01 08:08:21;;;;;;;4.75;0.75;;;;;;;25.36;35.48;101746.88;6246063;23;20427;-44
2022/07/01 08:10:50;;;;;;;7.28;0.75;;;;;;;25.42;35.60;101758.44;6244685;23;20004;-44
2022/07/01 08:13:18;;;;;;;2.25;0.60;;;;;;;25.40;35.45;101753.97;6246177;23;20359;-45
2022/07/01 08:15:47;;;;;;;1.85;0.75;;;;;;;25.39;35.30;101742.59;6246090;23;20427;-44
2022/07/01 08:18:15;;;;;;;2.30;0.73;;;;;;;25.45;35.48;101742.75;6245708;23;20313;-44
2022/07/01 08:20:44;;;;;;;3.75;0.70;;;;;;;25.30;35.44;101730.19;6245695;23;20436;-43
2022/07/01 08:23:12;;;;;;;2.33;0.70;;;;;;;25.40;35.71;101744.34;6244148;23;20027;-46
2022/07/01 08:25:41;;;;;;;2.20;0.52;;;;;;;25.27;35.71;101730.13;6245556;23;20424;-43
2022/07/01 08:28:09;;;;;;;3.78;0.55;;;;;;;25.33;35.70;101743.34;6245314;23;20393;-45
2022/07/01 08:30:38;;;;;;;4.47;0.63;;;;;;;25.40;35.60;101743.47;6244671;23;20011;-49
2022/07/01 08:33:07;;;;;;;1.65;0.57;;;;;;;25.50;35.82;101755.09;6245552;23;20069;-43
2022/07/01 08:35:36;;;;;;;2.53;0.45;;;;;;;25.51;35.49;101743.72;6245825;23;20012;-43
2022/07/01 08:38:06;;;;;;;2.90;0.60;;;;;;;25.54;35.88;101752.53;6245834;23;20004;-50
2022/07/01 08:40:35;;;;;;;2.70;0.93;;;;;;;25.50;35.74;101744.56;6245638;23;20054;-49
2022/07/01 08:43:06;;;;;;;1.70;0.65;;;;;;;25.58;35.81;101750.84;6244204;23;20443;-42
2022/07/01 08:45:36;;;;;;;5.85;0.68;;;;;;;25.59;35.80;101747.34;6245737;23;20008;-45
2022/07/01 08:48:05;;;;;;;3.55;0.70;;;;;;;25.57;35.78;101754.31;6245748;23;20442;-46
2022/07/01 08:50:37;;;;;;;1.80;0.50;;;;;;;25.58;35.81;101751.75;6245937;23;20392;-49
2022/07/01 08:53:07;;;;;;;0.65;0.30;;;;;;;25.58;36.02;101750.84;6245535;23;20423;-43
2022/07/01 08:56:40;;;;;;;2.47;0.60;;;;;;;25.66;35.65;101749.25;6245322;23;20146;-46
2022/07/01 08:58:24;;;;;;;0.82;0.38;;;;;;;25.70;35.67;101744.94;6244655;23;20463;-42
2022/07/01 09:00:52;;;;;;;1.10;0.30;;;;;;;25.67;35.94;101747.50;6245850;23;20065;-43
2022/07/01 09:03:24;;;;;;;2.88;0.60;;;;;;;25.65;35.80;101744.00;6221309;23;20000;-45
2022/07/01 09:05:54;;;;;;;1.35;0.50;;;;;;;25.72;36.13;101743.22;6247447;23;20008;-45
2022/07/01 09:08:23;;;;;;;2.38;0.40;;;;;;;25.78;36.13;101733.69;6247372;23;20083;-42
2022/07/01 09:10:52;;;;;;;2.15;1.00;;;;;;;25.81;36.04;101740.78;6245862;23;20003;-42
2022/07/01 09:13:19;;;;;;;1.98;0.50;;;;;;;25.91;35.61;101739.16;6244903;23;20486;-53
2022/07/01 09:15:46;;;;;;;1.67;0.60;;;;;;;25.93;35.91;101745.34;6235427;23;20004;-45
2022/07/01 09:18:16;;;;;;;1.90;0.45;;;;;;;26.00;35.69;101752.47;6236705;23;20508;-46
2022/07/01 09:20:45;;;;;;;1.10;0.30;;;;;;;26.08;35.75;101752.59;6236709;23;20011;-45
2022/07/01 09:23:15;;;;;;;3.50;0.45;;;;;;;26.18;35.41;101751.03;6234618;23;20074;-53
2022/07/01 09:25:47;;;;;;;1.75;0.60;;;;;;;26.20;35.40;101754.59;6236657;23;20008;-44
2022/07/01 09:28:19;;;;;;;1.77;0.60;;;;;;;26.15;35.43;101746.59;6236259;23;20083;-44
2022/07/01 09:30:50;;;;;;;2.13;0.65;;;;;;;26.27;35.49;101758.19;6235732;23;20058;-45
2022/07/01 09:33:24;;;;;;;3.35;0.75;;;;;;;26.23;35.34;101758.16;6236470;23;20077;-52
2022/07/01 09:35:53;;;;;;;2.55;0.50;;;;;;;26.27;35.47;101758.19;6236924;23;20016;-46
2022/07/01 09:38:24;;;;;;;3.33;0.50;;;;;;;26.26;35.32;101756.44;6235877;23;20008;-49
2022/07/01 09:41:02;;;;;;;1.83;0.70;;;;;;;26.26;35.67;101764.31;6236953;23;20004;-49
2022/07/01 09:43:31;;;;;;;2.20;0.52;;;;;;;26.24;35.51;101765.19;6236168;23;20008;-47
2022/07/01 09:46:00;;;;;;;3.70;0.50;;;;;;;26.26;35.85;101761.69;6236310;23;20239;-43
2022/07/01 09:48:43;;;;;;;1.60;0.47;;;;;;;26.24;35.89;101759.91;6236207;23;20008;-43
2022/07/01 09:51:11;;;;;;;1.10;0.30;;;;;;;26.22;35.91;101751.13;6236145;23;20004;-43
2022/07/01 09:53:39;;;;;;;0.75;0.20;;;;;;;26.21;35.93;101754.59;6236418;23;20023;-46
2022/07/01 09:56:07;;;;;;;1.35;0.63;;;;;;;26.24;36.06;101766.91;6236790;23;20011;-44
2022/07/01 09:58:35;;;;;;;4.93;0.73;;;;;;;26.22;36.13;101760.75;6236655;23;20020;-45
2022/07/01 10:01:03;;;;;;;2.13;0.40;;;;;;;26.30;36.00;101768.78;6235593;23;20810;-48
2022/07/01 10:03:33;;;;;;;1.48;0.50;;;;;;;26.33;35.99;101771.44;6236720;23;20008;-46
2022/07/01 10:06:28;;;;;;;2.15;0.50;;;;;;;26.31;36.25;101768.78;6210404;23;20004;-43
2022/07/01 10:08:59;;;;;;;2.55;0.50;;;;;;;26.35;36.28;101767.97;6235937;23;20008;-45
2022/07/01 10:11:51;;;;;;;5.15;0.80;;;;;;;26.40;36.00;101773.31;6209694;23;20004;-45
2022/07/01 10:14:19;;;;;;;2.63;0.75;;;;;;;26.42;36.31;101770.69;6236381;23;20007;-47
2022/07/01 10:16:48;;;;;;;3.47;0.60;;;;;;;26.41;36.46;101775.06;6234781;23;20014;-45
2022/07/01 10:19:27;;;;;;;3.67;0.60;;;;;;;26.39;36.13;101771.53;6235552;23;20000;-46
2022/07/01 10:21:58;;;;;;;0.90;0.50;;;;;;;26.48;35.91;101783.94;6236142;23;20035;-44
2022/07/01 10:24:27;;;;;;;2.22;0.40;;;;;;;26.48;36.07;101782.19;6209425;23;20458;-47
2022/07/01 10:27:00;;;;;;;3.15;0.60;;;;;;;26.48;36.09;101784.81;6235577;23;20012;-45
2022/07/01 10:29:30;;;;;;;1.48;0.52;;;;;;;26.52;35.96;101786.63;6234910;23;20012;-45
2022/07/01 10:32:11;;;;;;;2.20;0.50;;;;;;;26.53;36.16;101782.28;6209819;23;20015;-50
2022/07/01 10:34:41;;;;;;;5.40;0.60;;;;;;;26.58;36.22;101777.94;6236127;23;20004;-43
2022/07/01 10:37:10;;;;;;;1.77;0.60;;;;;;;26.62;35.95;101777.16;6234156;23;20022;-44
2022/07/01 10:39:59;;;;;;;2.15;0.50;;;;;;;26.56;35.94;101777.03;6234801;23;20149;-45
2022/07/01 10:42:32;;;;;;;2.58;0.45;;;;;;;26.64;35.88;101787.72;6226025;23;20008;-43
2022/07/01 10:45:12;;;;;;;2.03;0.50;;;;;;;26.62;36.00;101785.03;6236364;23;20016;-46
2022/07/01 10:47:41;;;;;;;2.97;0.40;;;;;;;26.59;35.84;101784.97;6235955;23;20395;-44
2022/07/01 10:50:12;;;;;;;2.40;0.57;;;;;;;26.61;36.04;101782.41;6235770;23;20016;-47
2022/07/01 10:52:41;;;;;;;1.98;0.60;;;;;;;26.61;36.26;101788.53;6236047;23;20339;-43
2022/07/01 10:55:10;;;;;;;3.60;0.50;;;;;;;26.64;35.91;101792.97;6233576;23;20343;-47
2022/07/01 10:57:41;;;;;;;2.53;0.60;;;;;;;26.66;36.06;101785.97;6235380;23;20023;-47
2022/07/01 11:00:08;;;;;;;1.90;0.40;;;;;;;26.75;35.85;101794.00;6235067;23;20512;-44
2022/07/01 11:02:39;;;;;;;1.55;0.40;;;;;;;26.73;35.94;101787.84;6235929;23;20015;-45
2022/07/01 11:05:12;;;;;;;2.20;0.60;;;;;;;26.71;36.01;101804.47;6235589;23;20474;-48
2022/07/01 11:07:42;;;;;;;2.28;0.63;;;;;;;26.73;35.85;101802.72;6235227;23;20008;-50
2022/07/01 11:10:10;;;;;;;1.05;0.40;;;;;;;26.76;35.80;101797.50;6234739;23;20004;-43
2022/07/01 11:12:39;;;;;;;1.45;0.57;;;;;;;26.83;35.72;101794.16;6235355;23;20015;-48
2022/07/01 11:15:07;;;;;;;0.90;0.40;;;;;;;26.77;35.93;101788.75;6209830;23;20662;-46
2022/07/01 11:17:48;;;;;;;3.85;0.40;;;;;;;26.75;35.48;101793.09;6235545;23;20008;-47
2022/07/01 11:20:16;;;;;;;2.38;0.40;;;;;;;26.73;35.78;101785.19;6234679;23;20008;-46
2022/07/01 11:22:44;;;;;;;2.53;0.55;;;;;;;26.76;35.96;101801.03;6235863;23;20004;-51
2022/07/01 11:25:13;;;;;;;2.47;0.98;;;;;;;26.81;35.94;101791.47;6235203;23;20036;-45
2022/07/01 11:27:41;;;;;;;1.83;0.68;;;;;;;26.92;35.83;101794.25;6235421;23;20008;-46
2022/07/01 11:30:11;;;;;;;1.85;0.52;;;;;;;26.97;35.63;101800.47;6207157;23;20107;-46
2022/07/01 11:32:43;;;;;;;3.08;0.60;;;;;;;26.94;35.83;101792.53;6235313;23;20339;-47
2022/07/01 11:41:03;;;;;;;1.17;0.35;;;;;;;27.04;35.47;101796.19;6223876;23;20004;-46
2022/07/01 11:43:33;;;;;;;3.97;0.68;;;;;;;27.04;35.32;101790.91;6234995;23;20077;-45